sensor_id;sensor_type;location;lat;lon;timestamp;P1;durP1;ratioP1;P2;durP2;ratioP2
40533;SDS011;26233;51.894;10.192;2023-04-01T00:01:25;2.30;;;1.02;;
40533;SDS011;26233;51.894;10.192;2023-04-01T00:03:52;1.67;;;0.95;;
40533;SDS011;26233;51.894;10.192;2023-04-01T00:06:21;1.67;;;0.90;;
40533;SDS011;26233;51.894;10.192;2023-04-01T00:08:49;1.25;;;0.90;;
40533;SDS011;26233;51.894;10.192;2023-04-01T00:11:18;1.67;;;1.08;;
40533;SDS011;26233;51.894;10.192;2023-04-01T00:13:46;1.25;;;0.80;;
40533;SDS011;26233;51.894;10.192;2023-04-01T00:16:14;2.35;;;0.93;;
40533;SDS011;26233;51.894;10.192;2023-04-01T00:18:41;1.67;;;1.08;;
40533;SDS011;26233;51.894;10.192;2023-04-01T00:21:08;1.65;;;0.98;;
40533;SDS011;26233;51.894;10.192;2023-04-01T00:23:35;2.58;;;1.13;;
40533;SDS011;26233;51.894;10.192;2023-04-01T00:26:02;1.67;;;0.95;;
40533;SDS011;26233;51.894;10.192;2023-04-01T00:28:31;1.48;;;0.93;;
40533;SDS011;26233;51.894;10.192;2023-04-01T00:31:03;1.67;;;0.90;;
40533;SDS011;26233;51.894;10.192;2023-04-01T00:33:32;1.77;;;1.02;;
40533;SDS011;26233;51.894;10.192;2023-04-01T00:36:06;1.23;;;0.93;;
40533;SDS011;26233;51.894;10.192;2023-04-01T00:38:35;2.05;;;0.90;;
40533;SDS011;26233;51.894;10.192;2023-04-01T00:41:02;1.63;;;1.00;;
40533;SDS011;26233;51.894;10.192;2023-04-01T00:43:32;1.38;;;1.00;;
40533;SDS011;26233;51.894;10.192;2023-04-01T00:46:00;2.42;;;1.10;;
40533;SDS011;26233;51.894;10.192;2023-04-01T00:48:31;1.13;;;0.90;;
40533;SDS011;26233;51.894;10.192;2023-04-01T00:51:02;1.77;;;0.90;;
40533;SDS011;26233;51.894;10.192;2023-04-01T00:53:34;1.45;;;1.10;;
40533;SDS011;26233;51.894;10.192;2023-04-01T00:56:07;2.35;;;1.25;;
40533;SDS011;26233;51.894;10.192;2023-04-01T00:58:43;2.15;;;1.38;;
40533;SDS011;26233;51.894;10.192;2023-04-01T01:01:15;1.85;;;1.10;;
40533;SDS011;26233;51.894;10.192;2023-04-01T01:03:42;1.67;;;0.98;;
40533;SDS011;26233;51.894;10.192;2023-04-01T01:06:10;2.55;;;1.10;;
40533;SDS011;26233;51.894;10.192;2023-04-01T01:08:52;2.53;;;0.93;;
40533;SDS011;26233;51.894;10.192;2023-04-01T01:11:48;2.15;;;0.93;;
40533;SDS011;26233;51.894;10.192;2023-04-01T01:14:31;1.05;;;0.93;;
40533;SDS011;26233;51.894;10.192;2023-04-01T01:17:10;1.35;;;0.90;;
40533;SDS011;26233;51.894;10.192;2023-04-01T01:23:16;2.88;;;1.15;;
40533;SDS011;26233;51.894;10.192;2023-04-01T01:29:16;2.00;;;1.20;;
40533;SDS011;26233;51.894;10.192;2023-04-01T01:32:16;1.52;;;1.00;;
40533;SDS011;26233;51.894;10.192;2023-04-01T01:34:55;1.10;;;0.90;;
40533;SDS011;26233;51.894;10.192;2023-04-01T01:37:39;1.15;;;1.02;;
40533;SDS011;26233;51.894;10.192;2023-04-01T01:40:11;2.47;;;1.42;;
40533;SDS011;26233;51.894;10.192;2023-04-01T01:42:41;2.15;;;1.23;;
40533;SDS011;26233;51.894;10.192;2023-04-01T01:45:12;1.80;;;1.40;;
40533;SDS011;26233;51.894;10.192;2023-04-01T01:47:43;2.20;;;1.40;;
40533;SDS011;26233;51.894;10.192;2023-04-01T01:50:13;3.63;;;1.45;;
40533;SDS011;26233;51.894;10.192;2023-04-01T01:52:41;2.28;;;1.33;;
40533;SDS011;26233;51.894;10.192;2023-04-01T01:55:22;1.92;;;1.42;;
40533;SDS011;26233;51.894;10.192;2023-04-01T01:57:54;2.05;;;1.10;;
40533;SDS011;26233;51.894;10.192;2023-04-01T02:00:25;1.77;;;1.08;;
40533;SDS011;26233;51.894;10.192;2023-04-01T02:02:53;1.58;;;1.15;;
40533;SDS011;26233;51.894;10.192;2023-04-01T02:05:24;1.52;;;1.10;;
40533;SDS011;26233;51.894;10.192;2023-04-01T02:07:56;1.55;;;1.20;;
40533;SDS011;26233;51.894;10.192;2023-04-01T02:10:31;1.25;;;1.00;;
40533;SDS011;26233;51.894;10.192;2023-04-01T02:13:03;1.65;;;1.13;;
40533;SDS011;26233;51.894;10.192;2023-04-01T02:15:41;3.15;;;1.60;;
40533;SDS011;26233;51.894;10.192;2023-04-01T02:18:12;1.63;;;1.30;;
40533;SDS011;26233;51.894;10.192;2023-04-01T02:20:42;2.83;;;1.58;;
40533;SDS011;26233;51.894;10.192;2023-04-01T02:23:10;3.17;;;1.63;;
40533;SDS011;26233;51.894;10.192;2023-04-01T02:25:39;2.20;;;1.50;;
40533;SDS011;26233;51.894;10.192;2023-04-01T02:28:08;2.03;;;1.10;;
40533;SDS011;26233;51.894;10.192;2023-04-01T02:30:36;1.73;;;1.20;;
40533;SDS011;26233;51.894;10.192;2023-04-01T02:33:06;1.75;;;1.05;;
40533;SDS011;26233;51.894;10.192;2023-04-01T02:35:34;1.50;;;1.00;;
40533;SDS011;26233;51.894;10.192;2023-04-01T02:38:04;2.15;;;1.05;;
40533;SDS011;26233;51.894;10.192;2023-04-01T02:40:40;1.50;;;1.10;;
40533;SDS011;26233;51.894;10.192;2023-04-01T02:43:13;2.33;;;1.20;;
40533;SDS011;26233;51.894;10.192;2023-04-01T02:45:43;1.35;;;0.98;;
40533;SDS011;26233;51.894;10.192;2023-04-01T02:48:11;1.20;;;0.90;;
40533;SDS011;26233;51.894;10.192;2023-04-01T02:50:39;1.75;;;1.00;;
40533;SDS011;26233;51.894;10.192;2023-04-01T02:53:07;1.42;;;0.90;;
40533;SDS011;26233;51.894;10.192;2023-04-01T02:55:34;1.38;;;0.90;;
40533;SDS011;26233;51.894;10.192;2023-04-01T02:58:01;1.10;;;0.95;;
40533;SDS011;26233;51.894;10.192;2023-04-01T03:00:28;2.10;;;0.90;;
40533;SDS011;26233;51.894;10.192;2023-04-01T03:02:56;1.67;;;0.90;;
40533;SDS011;26233;51.894;10.192;2023-04-01T03:05:23;1.73;;;0.80;;
40533;SDS011;26233;51.894;10.192;2023-04-01T03:07:50;1.27;;;1.10;;
40533;SDS011;26233;51.894;10.192;2023-04-01T03:10:19;1.35;;;1.00;;
40533;SDS011;26233;51.894;10.192;2023-04-01T03:12:46;0.80;;;0.73;;
40533;SDS011;26233;51.894;10.192;2023-04-01T03:15:15;1.38;;;0.80;;
40533;SDS011;26233;51.894;10.192;2023-04-01T03:17:42;0.75;;;0.75;;
40533;SDS011;26233;51.894;10.192;2023-04-01T03:20:12;1.63;;;0.80;;
40533;SDS011;26233;51.894;10.192;2023-04-01T03:22:40;2.30;;;0.75;;
40533;SDS011;26233;51.894;10.192;2023-04-01T03:25:08;1.85;;;0.90;;
40533;SDS011;26233;51.894;10.192;2023-04-01T03:27:37;2.28;;;0.80;;
40533;SDS011;26233;51.894;10.192;2023-04-01T03:30:09;1.00;;;0.80;;
40533;SDS011;26233;51.894;10.192;2023-04-01T03:32:38;0.95;;;0.70;;
40533;SDS011;26233;51.894;10.192;2023-04-01T03:35:06;0.80;;;0.73;;
40533;SDS011;26233;51.894;10.192;2023-04-01T03:37:34;2.92;;;1.00;;
40533;SDS011;26233;51.894;10.192;2023-04-01T03:40:01;1.13;;;0.80;;
40533;SDS011;26233;51.894;10.192;2023-04-01T03:42:30;1.45;;;0.82;;
40533;SDS011;26233;51.894;10.192;2023-04-01T03:44:58;0.93;;;0.80;;
40533;SDS011;26233;51.894;10.192;2023-04-01T03:47:25;1.58;;;1.00;;
40533;SDS011;26233;51.894;10.192;2023-04-01T03:49:52;1.00;;;0.90;;
40533;SDS011;26233;51.894;10.192;2023-04-01T03:52:20;1.48;;;1.00;;
40533;SDS011;26233;51.894;10.192;2023-04-01T03:54:47;0.85;;;0.70;;
40533;SDS011;26233;51.894;10.192;2023-04-01T03:57:14;2.13;;;0.93;;
40533;SDS011;26233;51.894;10.192;2023-04-01T03:59:41;1.50;;;0.70;;
40533;SDS011;26233;51.894;10.192;2023-04-01T04:02:10;1.02;;;0.75;;
40533;SDS011;26233;51.894;10.192;2023-04-01T04:04:37;1.30;;;0.70;;
40533;SDS011;26233;51.894;10.192;2023-04-01T04:07:04;1.52;;;0.88;;
40533;SDS011;26233;51.894;10.192;2023-04-01T04:09:31;2.00;;;0.90;;
40533;SDS011;26233;51.894;10.192;2023-04-01T04:11:58;1.10;;;0.90;;
40533;SDS011;26233;51.894;10.192;2023-04-01T04:14:26;1.95;;;1.10;;
40533;SDS011;26233;51.894;10.192;2023-04-01T04:16:53;0.80;;;0.80;;
40533;SDS011;26233;51.894;10.192;2023-04-01T04:19:21;1.10;;;0.90;;
40533;SDS011;26233;51.894;10.192;2023-04-01T04:21:48;1.10;;;0.70;;
40533;SDS011;26233;51.894;10.192;2023-04-01T04:24:15;1.13;;;0.80;;
40533;SDS011;26233;51.894;10.192;2023-04-01T04:26:42;1.08;;;0.70;;
40533;SDS011;26233;51.894;10.192;2023-04-01T04:29:11;0.80;;;0.80;;
40533;SDS011;26233;51.894;10.192;2023-04-01T04:31:38;1.27;;;0.80;;
40533;SDS011;26233;51.894;10.192;2023-04-01T04:34:05;1.55;;;0.80;;
40533;SDS011;26233;51.894;10.192;2023-04-01T04:36:34;2.45;;;0.90;;
40533;SDS011;26233;51.894;10.192;2023-04-01T04:39:01;1.55;;;0.73;;
40533;SDS011;26233;51.894;10.192;2023-04-01T04:41:28;1.45;;;1.00;;
40533;SDS011;26233;51.894;10.192;2023-04-01T04:43:55;1.30;;;0.90;;
40533;SDS011;26233;51.894;10.192;2023-04-01T04:46:23;1.23;;;0.75;;
40533;SDS011;26233;51.894;10.192;2023-04-01T04:48:51;1.30;;;0.80;;
40533;SDS011;26233;51.894;10.192;2023-04-01T04:51:19;0.68;;;0.68;;
40533;SDS011;26233;51.894;10.192;2023-04-01T04:53:48;0.80;;;0.75;;
40533;SDS011;26233;51.894;10.192;2023-04-01T04:56:17;0.70;;;0.70;;
40533;SDS011;26233;51.894;10.192;2023-04-01T04:58:45;1.58;;;0.80;;
40533;SDS011;26233;51.894;10.192;2023-04-01T05:01:13;1.13;;;0.95;;
40533;SDS011;26233;51.894;10.192;2023-04-01T05:03:42;1.15;;;1.00;;
40533;SDS011;26233;51.894;10.192;2023-04-01T05:06:10;2.15;;;0.85;;
40533;SDS011;26233;51.894;10.192;2023-04-01T05:08:39;0.82;;;0.75;;
40533;SDS011;26233;51.894;10.192;2023-04-01T05:11:11;1.48;;;0.80;;
40533;SDS011;26233;51.894;10.192;2023-04-01T05:13:40;0.70;;;0.70;;
40533;SDS011;26233;51.894;10.192;2023-04-01T05:16:09;1.35;;;0.95;;
40533;SDS011;26233;51.894;10.192;2023-04-01T05:18:38;1.30;;;0.80;;
40533;SDS011;26233;51.894;10.192;2023-04-01T05:21:06;0.95;;;0.70;;
40533;SDS011;26233;51.894;10.192;2023-04-01T05:23:35;1.52;;;0.90;;
40533;SDS011;26233;51.894;10.192;2023-04-01T05:26:05;1.52;;;0.85;;
40533;SDS011;26233;51.894;10.192;2023-04-01T05:28:35;1.73;;;0.80;;
40533;SDS011;26233;51.894;10.192;2023-04-01T05:31:04;1.00;;;0.77;;
40533;SDS011;26233;51.894;10.192;2023-04-01T05:33:33;2.38;;;0.80;;
40533;SDS011;26233;51.894;10.192;2023-04-01T05:36:06;1.40;;;0.80;;
40533;SDS011;26233;51.894;10.192;2023-04-01T05:38:35;0.90;;;0.70;;
40533;SDS011;26233;51.894;10.192;2023-04-01T05:41:03;1.10;;;0.68;;
40533;SDS011;26233;51.894;10.192;2023-04-01T05:43:30;1.40;;;0.90;;
40533;SDS011;26233;51.894;10.192;2023-04-01T05:45:58;1.80;;;0.80;;
40533;SDS011;26233;51.894;10.192;2023-04-01T05:48:25;1.60;;;0.95;;
40533;SDS011;26233;51.894;10.192;2023-04-01T05:50:52;1.30;;;0.70;;
40533;SDS011;26233;51.894;10.192;2023-04-01T05:53:20;1.52;;;0.70;;
40533;SDS011;26233;51.894;10.192;2023-04-01T05:55:47;0.90;;;0.70;;
40533;SDS011;26233;51.894;10.192;2023-04-01T05:58:14;0.80;;;0.63;;
40533;SDS011;26233;51.894;10.192;2023-04-01T06:00:41;1.05;;;0.70;;
40533;SDS011;26233;51.894;10.192;2023-04-01T06:03:10;0.85;;;0.70;;
40533;SDS011;26233;51.894;10.192;2023-04-01T06:05:41;0.95;;;0.80;;
40533;SDS011;26233;51.894;10.192;2023-04-01T06:08:10;0.70;;;0.60;;
40533;SDS011;26233;51.894;10.192;2023-04-01T06:10:51;1.05;;;0.80;;
40533;SDS011;26233;51.894;10.192;2023-04-01T06:13:36;0.68;;;0.57;;
40533;SDS011;26233;51.894;10.192;2023-04-01T06:16:32;0.77;;;0.70;;
40533;SDS011;26233;51.894;10.192;2023-04-01T06:19:14;0.90;;;0.70;;
40533;SDS011;26233;51.894;10.192;2023-04-01T06:25:04;1.52;;;0.88;;
40533;SDS011;26233;51.894;10.192;2023-04-01T06:31:20;1.08;;;0.65;;
40533;SDS011;26233;51.894;10.192;2023-04-01T06:34:08;1.30;;;0.80;;
40533;SDS011;26233;51.894;10.192;2023-04-01T06:37:03;1.30;;;0.68;;
40533;SDS011;26233;51.894;10.192;2023-04-01T06:39:54;0.65;;;0.60;;
40533;SDS011;26233;51.894;10.192;2023-04-01T06:43:01;0.95;;;0.70;;
40533;SDS011;26233;51.894;10.192;2023-04-01T06:45:41;1.00;;;0.70;;
40533;SDS011;26233;51.894;10.192;2023-04-01T06:48:18;0.77;;;0.65;;
40533;SDS011;26233;51.894;10.192;2023-04-01T06:51:09;1.02;;;0.77;;
40533;SDS011;26233;51.894;10.192;2023-04-01T06:53:49;1.35;;;0.75;;
40533;SDS011;26233;51.894;10.192;2023-04-01T06:56:23;0.65;;;0.63;;
40533;SDS011;26233;51.894;10.192;2023-04-01T06:58:52;0.88;;;0.70;;
40533;SDS011;26233;51.894;10.192;2023-04-01T07:01:24;1.45;;;0.60;;
40533;SDS011;26233;51.894;10.192;2023-04-01T07:03:57;0.90;;;0.60;;
40533;SDS011;26233;51.894;10.192;2023-04-01T07:06:29;0.85;;;0.82;;
40533;SDS011;26233;51.894;10.192;2023-04-01T07:09:02;1.20;;;0.80;;
40533;SDS011;26233;51.894;10.192;2023-04-01T07:11:34;1.60;;;0.88;;
40533;SDS011;26233;51.894;10.192;2023-04-01T07:14:04;1.23;;;0.88;;
40533;SDS011;26233;51.894;10.192;2023-04-01T07:16:41;1.42;;;0.73;;
40533;SDS011;26233;51.894;10.192;2023-04-01T07:19:16;0.50;;;0.50;;
40533;SDS011;26233;51.894;10.192;2023-04-01T07:21:49;0.73;;;0.65;;
40533;SDS011;26233;51.894;10.192;2023-04-01T07:24:21;0.77;;;0.60;;
40533;SDS011;26233;51.894;10.192;2023-04-01T07:26:54;1.13;;;0.70;;
40533;SDS011;26233;51.894;10.192;2023-04-01T07:29:23;1.10;;;0.70;;
40533;SDS011;26233;51.894;10.192;2023-04-01T07:32:02;1.00;;;0.63;;
40533;SDS011;26233;51.894;10.192;2023-04-01T07:34:44;0.98;;;0.68;;
40533;SDS011;26233;51.894;10.192;2023-04-01T07:37:36;1.02;;;0.70;;
40533;SDS011;26233;51.894;10.192;2023-04-01T07:40:17;1.83;;;0.80;;
40533;SDS011;26233;51.894;10.192;2023-04-01T07:42:56;0.82;;;0.68;;
40533;SDS011;26233;51.894;10.192;2023-04-01T07:45:41;0.52;;;0.52;;
40533;SDS011;26233;51.894;10.192;2023-04-01T07:48:22;0.82;;;0.68;;
40533;SDS011;26233;51.894;10.192;2023-04-01T07:50:59;0.55;;;0.55;;
40533;SDS011;26233;51.894;10.192;2023-04-01T07:53:33;0.60;;;0.55;;
40533;SDS011;26233;51.894;10.192;2023-04-01T07:56:08;1.63;;;0.75;;
40533;SDS011;26233;51.894;10.192;2023-04-01T07:58:42;0.60;;;0.60;;
40533;SDS011;26233;51.894;10.192;2023-04-01T08:01:19;0.50;;;0.50;;
40533;SDS011;26233;51.894;10.192;2023-04-01T08:06:53;1.00;;;0.73;;
40533;SDS011;26233;51.894;10.192;2023-04-01T08:09:35;1.48;;;0.60;;
40533;SDS011;26233;51.894;10.192;2023-04-01T08:12:13;1.10;;;0.50;;
40533;SDS011;26233;51.894;10.192;2023-04-01T08:14:56;1.10;;;0.70;;
40533;SDS011;26233;51.894;10.192;2023-04-01T08:17:36;0.60;;;0.60;;
40533;SDS011;26233;51.894;10.192;2023-04-01T08:20:23;1.58;;;0.80;;
40533;SDS011;26233;51.894;10.192;2023-04-01T08:22:57;0.82;;;0.60;;
40533;SDS011;26233;51.894;10.192;2023-04-01T08:25:34;0.85;;;0.50;;
40533;SDS011;26233;51.894;10.192;2023-04-01T08:28:09;0.47;;;0.47;;
40533;SDS011;26233;51.894;10.192;2023-04-01T08:30:45;1.55;;;0.70;;
40533;SDS011;26233;51.894;10.192;2023-04-01T08:33:19;0.80;;;0.70;;
40533;SDS011;26233;51.894;10.192;2023-04-01T08:35:52;0.70;;;0.60;;
40533;SDS011;26233;51.894;10.192;2023-04-01T08:38:24;0.60;;;0.60;;
40533;SDS011;26233;51.894;10.192;2023-04-01T08:41:01;0.63;;;0.63;;
40533;SDS011;26233;51.894;10.192;2023-04-01T08:44:04;1.65;;;0.80;;
40533;SDS011;26233;51.894;10.192;2023-04-01T08:46:54;0.85;;;0.60;;
40533;SDS011;26233;51.894;10.192;2023-04-01T08:49:47;0.70;;;0.70;;
40533;SDS011;26233;51.894;10.192;2023-04-01T08:53:15;0.40;;;0.40;;
40533;SDS011;26233;51.894;10.192;2023-04-01T08:56:03;0.90;;;0.60;;
40533;SDS011;26233;51.894;10.192;2023-04-01T08:58:48;0.70;;;0.63;;
40533;SDS011;26233;51.894;10.192;2023-04-01T09:01:51;0.50;;;0.50;;
40533;SDS011;26233;51.894;10.192;2023-04-01T09:04:56;1.67;;;0.70;;
40533;SDS011;26233;51.894;10.192;2023-04-01T09:07:45;0.63;;;0.60;;
40533;SDS011;26233;51.894;10.192;2023-04-01T09:10:27;0.70;;;0.70;;
40533;SDS011;26233;51.894;10.192;2023-04-01T09:13:17;0.57;;;0.57;;
40533;SDS011;26233;51.894;10.192;2023-04-01T09:16:08;1.13;;;0.70;;
40533;SDS011;26233;51.894;10.192;2023-04-01T09:22:00;1.27;;;0.52;;
40533;SDS011;26233;51.894;10.192;2023-04-01T09:25:08;1.15;;;0.80;;
40533;SDS011;26233;51.894;10.192;2023-04-01T09:28:00;0.82;;;0.80;;
40533;SDS011;26233;51.894;10.192;2023-04-01T09:30:59;1.17;;;0.70;;
40533;SDS011;26233;51.894;10.192;2023-04-01T09:33:59;0.60;;;0.60;;
40533;SDS011;26233;51.894;10.192;2023-04-01T09:37:17;0.50;;;0.50;;
40533;SDS011;26233;51.894;10.192;2023-04-01T09:39:51;0.88;;;0.60;;
40533;SDS011;26233;51.894;10.192;2023-04-01T09:42:45;0.93;;;0.50;;
40533;SDS011;26233;51.894;10.192;2023-04-01T09:45:44;0.52;;;0.52;;
40533;SDS011;26233;51.894;10.192;2023-04-01T09:48:33;0.77;;;0.75;;
40533;SDS011;26233;51.894;10.192;2023-04-01T09:51:22;1.02;;;0.52;;
40533;SDS011;26233;51.894;10.192;2023-04-01T09:54:02;0.75;;;0.60;;
40533;SDS011;26233;51.894;10.192;2023-04-01T10:00:10;0.50;;;0.50;;
40533;SDS011;26233;51.894;10.192;2023-04-01T10:16:34;1.20;;;0.88;;
40533;SDS011;26233;51.894;10.192;2023-04-01T10:20:03;0.98;;;0.70;;
40533;SDS011;26233;51.894;10.192;2023-04-01T10:26:09;0.57;;;0.57;;
40533;SDS011;26233;51.894;10.192;2023-04-01T10:32:43;0.70;;;0.70;;
40533;SDS011;26233;51.894;10.192;2023-04-01T10:36:12;0.60;;;0.50;;
40533;SDS011;26233;51.894;10.192;2023-04-01T10:39:34;0.40;;;0.40;;
40533;SDS011;26233;51.894;10.192;2023-04-01T10:49:10;0.65;;;0.63;;
40533;SDS011;26233;51.894;10.192;2023-04-01T10:52:11;0.68;;;0.60;;
40533;SDS011;26233;51.894;10.192;2023-04-01T10:54:58;0.50;;;0.50;;
40533;SDS011;26233;51.894;10.192;2023-04-01T10:58:10;0.60;;;0.50;;
40533;SDS011;26233;51.894;10.192;2023-04-01T11:01:07;1.10;;;0.60;;
40533;SDS011;26233;51.894;10.192;2023-04-01T11:10:38;0.88;;;0.57;;
40533;SDS011;26233;51.894;10.192;2023-04-01T11:17:25;0.57;;;0.57;;
40533;SDS011;26233;51.894;10.192;2023-04-01T11:20:18;0.75;;;0.60;;
40533;SDS011;26233;51.894;10.192;2023-04-01T11:26:17;0.60;;;0.60;;
40533;SDS011;26233;51.894;10.192;2023-04-01T11:31:50;0.47;;;0.47;;
40533;SDS011;26233;51.894;10.192;2023-04-01T11:34:32;0.95;;;0.82;;
40533;SDS011;26233;51.894;10.192;2023-04-01T11:37:25;0.68;;;0.45;;
40533;SDS011;26233;51.894;10.192;2023-04-01T11:40:07;0.65;;;0.50;;
40533;SDS011;26233;51.894;10.192;2023-04-01T11:42:49;0.77;;;0.60;;
40533;SDS011;26233;51.894;10.192;2023-04-01T11:45:25;0.52;;;0.50;;
40533;SDS011;26233;51.894;10.192;2023-04-01T11:48:18;0.70;;;0.70;;
40533;SDS011;26233;51.894;10.192;2023-04-01T11:53:57;0.60;;;0.60;;
40533;SDS011;26233;51.894;10.192;2023-04-01T11:56:40;0.60;;;0.60;;
40533;SDS011;26233;51.894;10.192;2023-04-01T11:59:38;0.60;;;0.60;;
40533;SDS011;26233;51.894;10.192;2023-04-01T12:02:29;0.50;;;0.50;;
40533;SDS011;26233;51.894;10.192;2023-04-01T12:05:29;0.60;;;0.60;;
40533;SDS011;26233;51.894;10.192;2023-04-01T12:08:21;0.60;;;0.60;;
40533;SDS011;26233;51.894;10.192;2023-04-01T12:10:59;0.50;;;0.50;;
40533;SDS011;26233;51.894;10.192;2023-04-01T12:13:39;0.60;;;0.60;;
40533;SDS011;26233;51.894;10.192;2023-04-01T12:16:20;0.68;;;0.60;;
40533;SDS011;26233;51.894;10.192;2023-04-01T12:19:02;0.70;;;0.70;;
40533;SDS011;26233;51.894;10.192;2023-04-01T12:21:38;0.80;;;0.80;;
40533;SDS011;26233;51.894;10.192;2023-04-01T12:27:17;0.50;;;0.50;;
40533;SDS011;26233;51.894;10.192;2023-04-01T12:33:03;0.57;;;0.55;;
40533;SDS011;26233;51.894;10.192;2023-04-01T12:35:55;0.50;;;0.50;;
40533;SDS011;26233;51.894;10.192;2023-04-01T12:38:39;0.40;;;0.40;;
40533;SDS011;26233;51.894;10.192;2023-04-01T12:41:24;0.50;;;0.50;;
40533;SDS011;26233;51.894;10.192;2023-04-01T12:44:05;0.50;;;0.50;;
40533;SDS011;26233;51.894;10.192;2023-04-01T12:47:04;0.60;;;0.60;;
40533;SDS011;26233;51.894;10.192;2023-04-01T12:53:02;0.57;;;0.47;;
40533;SDS011;26233;51.894;10.192;2023-04-01T12:55:46;1.20;;;0.70;;
40533;SDS011;26233;51.894;10.192;2023-04-01T12:58:32;0.70;;;0.70;;
40533;SDS011;26233;51.894;10.192;2023-04-01T13:01:25;0.50;;;0.50;;
40533;SDS011;26233;51.894;10.192;2023-04-01T13:04:26;0.50;;;0.50;;
40533;SDS011;26233;51.894;10.192;2023-04-01T13:07:13;0.70;;;0.60;;
40533;SDS011;26233;51.894;10.192;2023-04-01T13:10:01;0.60;;;0.60;;
40533;SDS011;26233;51.894;10.192;2023-04-01T13:12:44;1.00;;;0.60;;
40533;SDS011;26233;51.894;10.192;2023-04-01T13:15:35;0.90;;;0.70;;
40533;SDS011;26233;51.894;10.192;2023-04-01T13:18:15;2.15;;;0.95;;
40533;SDS011;26233;51.894;10.192;2023-04-01T13:20:56;0.70;;;0.70;;
40533;SDS011;26233;51.894;10.192;2023-04-01T13:23:42;0.70;;;0.60;;
40533;SDS011;26233;51.894;10.192;2023-04-01T13:26:24;0.70;;;0.70;;
40533;SDS011;26233;51.894;10.192;2023-04-01T13:28:56;0.65;;;0.57;;
40533;SDS011;26233;51.894;10.192;2023-04-01T13:31:36;0.88;;;0.70;;
40533;SDS011;26233;51.894;10.192;2023-04-01T13:34:19;0.60;;;0.57;;
40533;SDS011;26233;51.894;10.192;2023-04-01T13:37:04;0.93;;;0.70;;
40533;SDS011;26233;51.894;10.192;2023-04-01T13:40:00;1.10;;;1.00;;
40533;SDS011;26233;51.894;10.192;2023-04-01T13:42:42;1.45;;;1.35;;
40533;SDS011;26233;51.894;10.192;2023-04-01T13:45:17;2.15;;;1.60;;
40533;SDS011;26233;51.894;10.192;2023-04-01T13:47:55;1.38;;;1.00;;
40533;SDS011;26233;51.894;10.192;2023-04-01T13:50:56;0.80;;;0.80;;
40533;SDS011;26233;51.894;10.192;2023-04-01T13:53:48;0.70;;;0.70;;
40533;SDS011;26233;51.894;10.192;2023-04-01T13:56:33;0.65;;;0.65;;
40533;SDS011;26233;51.894;10.192;2023-04-01T13:59:14;0.93;;;0.93;;
40533;SDS011;26233;51.894;10.192;2023-04-01T14:02:14;0.88;;;0.85;;
40533;SDS011;26233;51.894;10.192;2023-04-01T14:05:13;0.80;;;0.80;;
40533;SDS011;26233;51.894;10.192;2023-04-01T14:08:24;1.10;;;1.00;;
40533;SDS011;26233;51.894;10.192;2023-04-01T14:11:07;0.98;;;0.90;;
40533;SDS011;26233;51.894;10.192;2023-04-01T14:13:44;0.70;;;0.65;;
40533;SDS011;26233;51.894;10.192;2023-04-01T14:16:47;1.27;;;1.15;;
40533;SDS011;26233;51.894;10.192;2023-04-01T14:19:50;0.85;;;0.82;;
40533;SDS011;26233;51.894;10.192;2023-04-01T14:22:34;0.75;;;0.75;;
40533;SDS011;26233;51.894;10.192;2023-04-01T14:25:18;0.77;;;0.77;;
40533;SDS011;26233;51.894;10.192;2023-04-01T14:28:01;0.65;;;0.65;;
40533;SDS011;26233;51.894;10.192;2023-04-01T14:33:46;0.60;;;0.60;;
40533;SDS011;26233;51.894;10.192;2023-04-01T14:36:29;0.60;;;0.60;;
40533;SDS011;26233;51.894;10.192;2023-04-01T14:39:15;0.65;;;0.65;;
40533;SDS011;26233;51.894;10.192;2023-04-01T14:42:03;0.45;;;0.45;;
40533;SDS011;26233;51.894;10.192;2023-04-01T14:44:56;1.30;;;0.50;;
40533;SDS011;26233;51.894;10.192;2023-04-01T14:47:46;0.70;;;0.70;;
40533;SDS011;26233;51.894;10.192;2023-04-01T14:50:20;1.00;;;0.95;;
40533;SDS011;26233;51.894;10.192;2023-04-01T14:52:55;0.63;;;0.63;;
40533;SDS011;26233;51.894;10.192;2023-04-01T14:55:28;0.70;;;0.70;;
40533;SDS011;26233;51.894;10.192;2023-04-01T14:58:00;0.75;;;0.70;;
40533;SDS011;26233;51.894;10.192;2023-04-01T15:00:48;1.65;;;0.88;;
40533;SDS011;26233;51.894;10.192;2023-04-01T15:03:26;0.80;;;0.80;;
40533;SDS011;26233;51.894;10.192;2023-04-01T15:06:09;1.65;;;1.55;;
40533;SDS011;26233;51.894;10.192;2023-04-01T15:09:05;1.20;;;1.20;;
40533;SDS011;26233;51.894;10.192;2023-04-01T15:11:46;1.25;;;1.15;;
40533;SDS011;26233;51.894;10.192;2023-04-01T15:17:40;1.15;;;1.05;;
40533;SDS011;26233;51.894;10.192;2023-04-01T15:20:24;0.70;;;0.70;;
40533;SDS011;26233;51.894;10.192;2023-04-01T15:23:10;0.70;;;0.70;;
40533;SDS011;26233;51.894;10.192;2023-04-01T15:25:51;0.90;;;0.90;;
40533;SDS011;26233;51.894;10.192;2023-04-01T15:28:51;1.02;;;0.85;;
40533;SDS011;26233;51.894;10.192;2023-04-01T15:31:46;0.90;;;0.80;;
40533;SDS011;26233;51.894;10.192;2023-04-01T15:34:25;1.33;;;0.90;;
40533;SDS011;26233;51.894;10.192;2023-04-01T15:37:00;1.17;;;1.08;;
40533;SDS011;26233;51.894;10.192;2023-04-01T15:39:38;2.20;;;2.00;;
40533;SDS011;26233;51.894;10.192;2023-04-01T15:42:31;1.63;;;1.52;;
40533;SDS011;26233;51.894;10.192;2023-04-01T15:45:16;3.38;;;3.08;;
40533;SDS011;26233;51.894;10.192;2023-04-01T15:48:01;2.80;;;2.60;;
40533;SDS011;26233;51.894;10.192;2023-04-01T15:50:45;1.90;;;1.80;;
40533;SDS011;26233;51.894;10.192;2023-04-01T15:53:31;1.40;;;1.30;;
40533;SDS011;26233;51.894;10.192;2023-04-01T15:56:12;1.20;;;1.00;;
40533;SDS011;26233;51.894;10.192;2023-04-01T15:58:57;0.70;;;0.70;;
40533;SDS011;26233;51.894;10.192;2023-04-01T16:01:38;0.70;;;0.70;;
40533;SDS011;26233;51.894;10.192;2023-04-01T16:07:28;0.55;;;0.55;;
40533;SDS011;26233;51.894;10.192;2023-04-01T16:10:16;1.00;;;0.50;;
40533;SDS011;26233;51.894;10.192;2023-04-01T16:13:02;0.50;;;0.50;;
40533;SDS011;26233;51.894;10.192;2023-04-01T16:15:44;1.48;;;0.57;;
40533;SDS011;26233;51.894;10.192;2023-04-01T16:18:27;0.57;;;0.57;;
40533;SDS011;26233;51.894;10.192;2023-04-01T16:21:24;0.60;;;0.60;;
40533;SDS011;26233;51.894;10.192;2023-04-01T16:24:04;0.60;;;0.60;;
40533;SDS011;26233;51.894;10.192;2023-04-01T16:26:43;1.00;;;0.85;;
40533;SDS011;26233;51.894;10.192;2023-04-01T16:29:19;1.23;;;0.98;;
40533;SDS011;26233;51.894;10.192;2023-04-01T16:31:55;0.90;;;0.90;;
40533;SDS011;26233;51.894;10.192;2023-04-01T16:34:43;1.27;;;1.17;;
40533;SDS011;26233;51.894;10.192;2023-04-01T16:37:15;1.13;;;1.02;;
40533;SDS011;26233;51.894;10.192;2023-04-01T16:39:49;1.10;;;0.90;;
40533;SDS011;26233;51.894;10.192;2023-04-01T16:42:31;1.00;;;0.90;;
40533;SDS011;26233;51.894;10.192;2023-04-01T16:45:15;1.00;;;0.90;;
40533;SDS011;26233;51.894;10.192;2023-04-01T16:47:52;0.63;;;0.63;;
40533;SDS011;26233;51.894;10.192;2023-04-01T16:50:23;0.70;;;0.70;;
40533;SDS011;26233;51.894;10.192;2023-04-01T16:52:55;1.73;;;1.42;;
40533;SDS011;26233;51.894;10.192;2023-04-01T16:55:41;1.50;;;1.40;;
40533;SDS011;26233;51.894;10.192;2023-04-01T16:58:14;1.48;;;1.05;;
40533;SDS011;26233;51.894;10.192;2023-04-01T17:00:55;0.93;;;0.82;;
40533;SDS011;26233;51.894;10.192;2023-04-01T17:03:29;0.70;;;0.70;;
40533;SDS011;26233;51.894;10.192;2023-04-01T17:06:06;0.60;;;0.60;;
40533;SDS011;26233;51.894;10.192;2023-04-01T17:08:50;0.60;;;0.60;;
40533;SDS011;26233;51.894;10.192;2023-04-01T17:11:35;0.77;;;0.70;;